Time;durP1;ratioP1;P1;durP2;ratioP2;P2;SDS_P1;SDS_P2;PMS_P1;PMS_P2;Temp;Humidity;BMP_temperature;BMP_pressure;BME280_temperature;BME280_humidity;BME280_pressure;Samples;Min_cycle;Max_cycle;Signal;HPM_P1;HPM_P2
2022/05/01 00:00:06;;;;;;;;;9.25;7.00;;;;;15.59;46.57;102174.59;5080158;27;46261;-79
2022/05/01 00:02:32;;;;;;;;;8.25;8.25;;;;;15.56;47.22;102174.56;5079107;27;46655;-79
2022/05/01 00:04:58;;;;;;;;;12.33;8.33;;;;;15.55;47.39;102166.56;5078975;28;45371;-80
2022/05/01 00:07:23;;;;;;;;;8.00;8.00;;;;;15.52;47.19;102171.84;5079375;27;45173;-79
2022/05/01 00:09:49;;;;;;;;;10.75;8.75;;;;;15.49;47.43;102170.03;5095039;27;45422;-78
2022/05/01 00:12:14;;;;;;;;;9.25;8.75;;;;;15.45;47.23;102160.25;5098399;27;47871;-79
2022/05/01 00:14:39;;;;;;;;;12.00;9.00;;;;;15.40;47.70;102157.53;5099571;27;45265;-80
2022/05/01 00:17:05;;;;;;;;;9.00;7.75;;;;;15.38;47.77;102159.25;5115517;27;45243;-78
2022/05/01 00:19:30;;;;;;;;;9.75;9.25;;;;;15.37;47.50;102156.59;5115603;27;45330;-79
2022/05/01 00:21:56;;;;;;;;;10.25;8.25;;;;;15.34;47.82;102161.84;5088662;27;46850;-78
2022/05/01 00:24:22;;;;;;;;;10.50;8.25;;;;;15.32;48.13;102163.63;5112688;27;45211;-78
2022/05/01 00:26:47;;;;;;;;;10.00;7.25;;;;;15.29;48.40;102158.28;5099546;27;45195;-78
2022/05/01 00:29:12;;;;;;;;;8.00;8.00;;;;;15.27;48.05;102163.56;5099632;27;45540;-79
2022/05/01 00:31:39;;;;;;;;;10.00;9.00;;;;;15.26;48.41;102161.78;5114996;27;47333;-79
2022/05/01 00:36:48;;;;;;;;;9.00;9.00;;;;;15.19;48.56;102157.25;5079236;28;45391;-79
2022/05/01 00:39:14;;;;;;;;;8.50;8.00;;;;;15.18;49.08;102155.47;5097253;27;45417;-79
2022/05/01 00:41:40;;;;;;;;;9.25;9.00;;;;;15.14;49.04;102154.53;5092399;27;54196;-79
2022/05/01 00:44:11;;;;;;;;;13.50;11.25;;;;;15.12;49.00;102155.38;5080389;27;45492;-79
2022/05/01 00:46:44;;;;;;;;;9.50;9.50;;;;;15.08;49.02;102150.91;5091429;27;45383;-79
2022/05/01 00:49:19;;;;;;;;;8.50;8.50;;;;;15.04;49.17;102157.03;5098558;27;45157;-79
2022/05/01 00:51:47;;;;;;;;;11.50;9.00;;;;;15.03;49.95;102149.94;5098022;27;47651;-80
2022/05/01 00:54:16;;;;;;;;;13.00;9.50;;;;;15.00;49.47;102150.78;5098945;27;45382;-79
2022/05/01 00:56:44;;;;;;;;;9.25;8.00;;;;;14.98;49.56;102139.22;5099088;27;45310;-79
2022/05/01 00:59:10;;;;;;;;;10.50;8.00;;;;;14.96;49.59;102143.63;5087128;27;45507;-79
2022/05/01 01:01:36;;;;;;;;;8.00;8.00;;;;;14.94;49.87;102140.06;5078186;27;46573;-79
2022/05/01 01:04:02;;;;;;;;;9.25;9.25;;;;;14.90;50.30;102139.09;5078411;27;45251;-79
2022/05/01 01:06:29;;;;;;;;;10.50;9.25;;;;;14.87;50.37;102133.75;5078292;27;45299;-79
2022/05/01 01:08:55;;;;;;;;;14.25;9.25;;;;;14.84;50.24;102144.34;5078570;27;45350;-79
2022/05/01 01:11:20;;;;;;;;;11.75;8.25;;;;;14.79;50.50;102138.06;5110580;27;46687;-79
2022/05/01 01:13:47;;;;;;;;;10.00;9.75;;;;;14.75;50.95;102138.88;5098649;27;45385;-77
2022/05/01 01:16:12;;;;;;;;;13.25;11.75;;;;;14.72;50.92;102141.50;5097352;27;45254;-78
2022/05/01 01:18:41;;;;;;;;;8.50;6.50;;;;;14.68;51.29;102137.91;5098708;27;45666;-79
2022/05/01 01:21:10;;;;;;;;;12.00;10.50;;;;;14.64;51.39;102137.81;5098208;27;46625;-79
2022/05/01 01:23:36;;;;;;;;;8.00;8.00;;;;;14.64;51.92;102143.16;5098521;27;45276;-79
2022/05/01 01:26:04;;;;;;;;;12.00;12.00;;;;;14.61;51.75;102145.78;5098653;27;45429;-79
2022/05/01 01:28:34;;;;;;;;;12.50;12.00;;;;;14.58;52.10;102135.97;5098887;27;45199;-79
2022/05/01 01:33:48;;;;;;;;;13.50;10.75;;;;;14.51;52.63;102133.22;5097236;27;45423;-79
2022/05/01 01:36:14;;;;;;;;;8.50;7.75;;;;;14.49;52.75;102134.94;5097318;27;45165;-79
2022/05/01 01:38:40;;;;;;;;;10.25;10.25;;;;;14.42;52.94;102133.91;5084609;27;45595;-78
2022/05/01 01:41:11;;;;;;;;;14.25;11.00;;;;;14.40;52.85;102136.56;5089145;27;46810;-79
2022/05/01 01:43:38;;;;;;;;;13.50;12.25;;;;;14.39;53.02;102131.22;5095664;27;45389;-78
2022/05/01 01:46:03;;;;;;;;;9.50;9.50;;;;;14.36;53.64;102132.06;5078224;27;45145;-78
2022/05/01 01:48:29;;;;;;;;;11.75;10.50;;;;;14.35;53.11;102134.69;5077570;27;45209;-78
2022/05/01 01:51:05;;;;;;;;;17.00;11.75;;;;;14.32;53.52;102132.88;5084276;27;46241;-79
2022/05/01 01:53:32;;;;;;;;;15.25;13.00;;;;;14.29;53.90;102138.16;5097938;27;45315;-80
2022/05/01 01:55:58;;;;;;;;;13.25;11.25;;;;;14.25;54.32;102135.41;5098268;27;45387;-79
2022/05/01 01:58:25;;;;;;;;;14.50;12.75;;;;;14.23;54.34;102132.75;5093290;27;45375;-78
2022/05/01 02:00:51;;;;;;;;;13.25;12.50;;;;;14.19;54.39;102135.31;5086137;27;45652;-78
2022/05/01 02:03:17;;;;;;;;;7.75;5.75;;;;;14.16;55.13;102131.72;5097891;27;45913;-80
2022/05/01 02:05:43;;;;;;;;;16.50;13.00;;;;;14.14;55.43;102124.59;5097807;27;45319;-79
2022/05/01 02:08:09;;;;;;;;;12.00;10.00;;;;;14.12;54.99;102126.34;5097943;27;45383;-79
2022/05/01 02:10:35;;;;;;;;;14.75;11.50;;;;;14.09;55.59;102124.50;5097649;27;45164;-79
2022/05/01 02:13:02;;;;;;;;;15.00;11.50;;;;;14.07;55.82;102115.66;5079818;27;45417;-79
2022/05/01 02:15:30;;;;;;;;;13.50;12.25;;;;;14.06;55.73;102119.16;5077545;27;45449;-79
2022/05/01 02:17:56;;;;;;;;;14.25;12.75;;;;;14.03;55.86;102126.19;5077198;27;45307;-80
2022/05/01 02:20:21;;;;;;;;;16.50;12.25;;;;;14.01;56.31;102128.81;5076963;27;46429;-79
2022/05/01 02:22:47;;;;;;;;;13.50;13.25;;;;;13.97;56.44;102120.78;5075641;28;51335;-79
2022/05/01 02:25:12;;;;;;;;;18.25;14.25;;;;;13.96;56.67;102124.28;5077426;27;45323;-79
2022/05/01 02:27:38;;;;;;;;;14.00;11.75;;;;;13.94;56.78;102120.69;5077446;27;45207;-79
2022/05/01 02:30:05;;;;;;;;;12.25;12.25;;;;;13.92;57.08;102111.81;5077101;27;46013;-79
2022/05/01 02:32:31;;;;;;;;;11.75;11.75;;;;;13.88;57.53;102111.75;5089785;27;45460;-80
2022/05/01 02:34:56;;;;;;;;;14.00;14.00;;;;;13.86;57.15;102109.97;5087953;27;45489;-79
2022/05/01 02:37:22;;;;;;;;;14.25;12.50;;;;;13.83;57.86;102105.47;5109480;27;45409;-79
2022/05/01 02:39:47;;;;;;;;;14.00;11.75;;;;;13.82;57.82;102103.69;5096716;27;47516;-79
2022/05/01 02:42:13;;;;;;;;;20.75;13.75;;;;;13.82;57.84;102113.41;5076923;27;45248;-79
2022/05/01 02:44:38;;;;;;;;;15.00;13.00;;;;;13.78;58.21;102107.13;5077095;27;45497;-79
2022/05/01 02:47:05;;;;;;;;;16.25;14.75;;;;;13.74;58.41;102102.66;5079850;27;45566;-79
2022/05/01 02:49:30;;;;;;;;;14.75;14.00;;;;;13.72;58.70;102107.03;5097323;27;47292;-78
2022/05/01 02:51:56;;;;;;;;;12.75;10.25;;;;;13.69;59.00;102101.69;5097055;27;45334;-79
2022/05/01 02:54:21;;;;;;;;;14.25;13.25;;;;;13.67;58.56;102105.16;5097240;27;45317;-78
2022/05/01 02:56:49;;;;;;;;;16.25;13.75;;;;;13.63;59.15;102097.16;5097581;27;45554;-79
2022/05/01 02:59:15;;;;;;;;;14.75;12.00;;;;;13.56;59.55;102087.28;5084635;27;47462;-79
2022/05/01 03:01:41;;;;;;;;;14.00;12.50;;;;;13.53;60.17;102088.97;5076686;27;45284;-78
2022/05/01 03:04:06;;;;;;;;;15.25;12.00;;;;;13.53;59.88;102083.66;5076740;28;46270;-79
2022/05/01 03:06:33;;;;;;;;;14.50;13.00;;;;;13.53;60.41;102091.63;5094340;27;45304;-79
2022/05/01 03:08:59;;;;;;;;;17.75;14.75;;;;;13.53;60.60;102094.28;5096839;27;47834;-79
2022/05/01 03:11:24;;;;;;;;;13.50;13.50;;;;;13.50;61.01;102086.28;5092325;27;53525;-78
2022/05/01 03:13:50;;;;;;;;;12.50;11.50;;;;;13.49;61.22;102081.84;5078590;28;45264;-78
2022/05/01 03:16:15;;;;;;;;;14.25;12.75;;;;;13.46;60.99;102093.28;5079980;27;45561;-79
2022/05/01 03:24:09;;;;;;;;;18.25;15.25;;;;;13.38;61.55;102081.63;5100714;27;45320;-79
2022/05/01 03:26:34;;;;;;;;;12.50;12.50;;;;;13.36;61.88;102075.38;5100545;27;45569;-79
2022/05/01 03:29:00;;;;;;;;;11.00;11.00;;;;;13.34;61.86;102066.50;5099816;27;54359;-79
2022/05/01 03:31:27;;;;;;;;;17.50;14.25;;;;;13.33;62.33;102078.00;5098734;27;45481;-78
2022/05/01 03:33:53;;;;;;;;;17.75;15.00;;;;;13.31;62.45;102080.59;5099286;27;45434;-79
2022/05/01 03:36:18;;;;;;;;;15.75;15.75;;;;;13.28;62.68;102080.56;5086482;27;45248;-79
2022/05/01 03:38:44;;;;;;;;;18.00;14.00;;;;;13.26;63.11;102078.72;5099768;27;46034;-79
2022/05/01 03:41:13;;;;;;;;;16.75;14.25;;;;;13.23;63.01;102076.03;5087935;27;45250;-78
2022/05/01 03:43:39;;;;;;;;;14.50;12.00;;;;;13.20;63.23;102079.44;5080993;27;45363;-79
2022/05/01 03:46:05;;;;;;;;;17.75;16.75;;;;;13.18;63.56;102077.66;5100225;27;45419;-79
2022/05/01 03:48:30;;;;;;;;;16.50;16.00;;;;;13.16;63.89;102074.09;5099909;27;45640;-79
2022/05/01 03:50:58;;;;;;;;;16.00;16.00;;;;;13.14;63.69;102073.13;5099735;27;53052;-79
2022/05/01 03:53:23;;;;;;;;;16.25;15.00;;;;;13.13;64.13;102074.91;5115832;27;45177;-79
2022/05/01 03:55:49;;;;;;;;;16.25;14.25;;;;;13.11;64.50;102071.34;5100333;27;45299;-79
2022/05/01 03:58:15;;;;;;;;;22.00;15.00;;;;;13.09;64.67;102073.03;5113214;27;46655;-79
2022/05/01 04:00:44;;;;;;;;;25.75;16.50;;;;;13.09;64.71;102078.34;5090967;27;45275;-80
2022/05/01 04:03:13;;;;;;;;;16.50;13.75;;;;;13.06;64.66;102065.94;5079369;27;45468;-79
2022/05/01 04:05:40;;;;;;;;;17.00;14.50;;;;;13.04;65.01;102075.59;5087759;27;45492;-79
2022/05/01 04:08:05;;;;;;;;;16.75;15.50;;;;;13.03;65.39;102078.22;5099299;27;45770;-79
2022/05/01 04:10:31;;;;;;;;;15.00;14.75;;;;;13.00;65.47;102071.13;5099642;27;45226;-79
2022/05/01 04:12:57;;;;;;;;;20.75;16.25;;;;;12.98;65.69;102071.94;5083039;27;45169;-79
2022/05/01 04:15:22;;;;;;;;;16.00;16.00;;;;;12.95;66.03;102067.47;5079246;28;45180;-79
2022/05/01 04:17:48;;;;;;;;;17.00;15.50;;;;;12.93;66.64;102063.88;5078834;27;47216;-79
2022/05/01 04:20:15;;;;;;;;;18.00;16.25;;;;;12.93;66.38;102062.97;5087963;27;45427;-79
2022/05/01 04:22:42;;;;;;;;;20.50;17.00;;;;;12.93;66.81;102062.97;5098446;27;45411;-79
2022/05/01 04:25:21;;;;;;;;;15.25;14.50;;;;;12.92;66.48;102061.19;5099954;27;45266;-79
2022/05/01 04:27:48;;;;;;;;;26.50;16.75;;;;;12.92;66.96;102071.81;5080012;27;46971;-79
2022/05/01 04:30:16;;;;;;;;;22.50;20.50;;;;;12.88;66.64;102062.88;5090572;27;45457;-79
2022/05/01 04:32:56;;;;;;;;;17.00;17.00;;;;;12.90;66.81;102069.13;5099234;27;45286;-79
2022/05/01 04:35:31;;;;;;;;;19.50;18.00;;;;;12.88;67.11;102073.47;5086184;27;45465;-79
2022/05/01 04:38:02;;;;;;;;;24.00;18.00;;;;;12.88;67.20;102072.59;5085973;27;46767;-78
2022/05/01 04:40:34;;;;;;;;;21.50;18.50;;;;;12.84;67.74;102067.25;5092537;27;45305;-79
2022/05/01 04:43:09;;;;;;;;;17.50;14.25;;;;;12.85;67.91;102060.19;5078851;27;45369;-80
2022/05/01 04:45:35;;;;;;;;;24.75;21.50;;;;;12.83;67.54;102067.19;5077329;27;45450;-79
2022/05/01 04:48:02;;;;;;;;;23.00;18.00;;;;;12.84;68.21;102069.91;5088923;27;46515;-79
2022/05/01 04:50:28;;;;;;;;;16.75;15.75;;;;;12.81;68.16;102066.28;5114935;27;45379;-79
2022/05/01 04:52:54;;;;;;;;;23.50;19.25;;;;;12.82;68.25;102070.69;5097867;27;45369;-79
2022/05/01 04:55:19;;;;;;;;;26.00;18.50;;;;;12.85;68.23;102076.97;5099113;27;45422;-79
2022/05/01 04:57:45;;;;;;;;;18.75;15.50;;;;;12.84;68.57;102072.53;5098887;27;47913;-79
2022/05/01 05:00:11;;;;;;;;;19.25;17.75;;;;;12.86;68.99;102072.56;5078193;27;45224;-79
2022/05/01 05:02:38;;;;;;;;;27.25;22.00;;;;;12.88;68.38;102078.78;5079005;27;45207;-79
2022/05/01 05:07:34;;;;;;;;;23.25;18.25;;;;;12.93;68.95;102085.09;5096661;27;45578;-80
2022/05/01 05:09:59;;;;;;;;;23.25;19.00;;;;;12.94;68.75;102086.88;5089153;27;45426;-79
2022/05/01 05:12:25;;;;;;;;;18.50;18.25;;;;;13.00;68.75;102094.09;5098796;27;45316;-79
2022/05/01 05:14:54;;;;;;;;;23.75;18.75;;;;;13.00;68.78;102091.44;5098956;27;45316;-80
2022/05/01 05:17:22;;;;;;;;;19.00;16.75;;;;;13.01;69.24;102094.09;5098661;27;47422;-80
2022/05/01 05:19:48;;;;;;;;;21.00;18.25;;;;;13.03;69.36;102091.47;5098418;27;45310;-79
2022/05/01 05:22:14;;;;;;;;;18.50;15.50;;;;;13.08;69.06;102095.13;5111258;27;45325;-79
2022/05/01 05:24:39;;;;;;;;;21.75;19.00;;;;;13.07;69.30;102093.34;5097788;27;45802;-79
2022/05/01 05:27:05;;;;;;;;;25.00;17.00;;;;;13.11;69.19;102100.50;5098479;27;45560;-80
2022/05/01 05:29:30;;;;;;;;;21.00;17.00;;;;;13.12;69.42;102096.97;5098425;27;45299;-79
2022/05/01 05:31:56;;;;;;;;;20.50;17.50;;;;;13.14;69.29;102099.66;5076635;28;45462;-79
2022/05/01 05:34:22;;;;;;;;;19.25;18.25;;;;;13.17;69.39;102100.63;5079602;27;45457;-79
2022/05/01 05:36:47;;;;;;;;;19.50;17.00;;;;;13.20;69.27;102102.44;5096603;27;46569;-80
2022/05/01 05:39:13;;;;;;;;;24.25;20.50;;;;;13.22;69.63;102098.09;5097882;27;48619;-79
2022/05/01 05:41:38;;;;;;;;;18.25;16.75;;;;;13.26;69.24;102097.28;5093711;27;45450;-80
2022/05/01 05:44:04;;;;;;;;;21.25;18.75;;;;;13.29;69.48;102107.97;5096695;27;45534;-79
2022/05/01 05:46:29;;;;;;;;;26.50;19.25;;;;;13.33;69.25;102097.44;5098312;27;46415;-79
2022/05/01 05:48:55;;;;;;;;;18.75;16.75;;;;;13.38;69.14;102094.91;5096788;27;45398;-80
2022/05/01 05:51:20;;;;;;;;;23.50;21.25;;;;;13.40;69.35;102092.25;5098139;27;45198;-80
2022/05/01 05:53:46;;;;;;;;;17.75;14.75;;;;;13.45;69.31;102086.19;5097905;27;45263;-80
2022/05/01 05:56:11;;;;;;;;;24.00;21.25;;;;;13.47;69.61;102087.09;5097822;27;46566;-79
2022/05/01 05:58:37;;;;;;;;;21.75;20.00;;;;;13.49;69.14;102080.06;5097744;27;45420;-80
2022/05/01 06:01:02;;;;;;;;;25.75;20.00;;;;;13.53;69.01;102083.66;5098138;27;45233;-79
2022/05/01 06:03:28;;;;;;;;;28.50;21.50;;;;;13.56;69.17;102081.97;5096897;27;45406;-80
2022/05/01 06:05:53;;;;;;;;;21.75;19.00;;;;;13.63;69.57;102080.31;5097648;27;45702;-80
2022/05/01 06:08:19;;;;;;;;;21.25;19.00;;;;;13.66;69.14;102075.06;5096569;27;45309;-79
2022/05/01 06:10:44;;;;;;;;;21.00;18.00;;;;;13.74;69.03;102085.81;5088788;27;45321;-80
2022/05/01 06:13:10;;;;;;;;;18.00;17.75;;;;;13.79;69.45;102092.09;5097967;27;45526;-80
2022/05/01 06:15:37;;;;;;;;;23.25;22.00;;;;;13.83;69.37;102094.84;5097912;27;45822;-80
2022/05/01 06:18:03;;;;;;;;;20.75;18.50;;;;;13.91;69.37;102100.31;5097549;27;45366;-79
2022/05/01 06:20:28;;;;;;;;;23.25;20.75;;;;;13.97;69.42;102097.75;5097906;27;45201;-80
2022/05/01 06:22:54;;;;;;;;;28.25;22.50;;;;;14.04;69.25;102098.75;5097751;27;45215;-80
2022/05/01 06:25:19;;;;;;;;;23.50;22.00;;;;;14.09;69.07;102097.06;5097675;27;46560;-80
2022/05/01 06:27:44;;;;;;;;;24.75;22.75;;;;;14.17;68.96;102098.09;5097253;27;50582;-80
2022/05/01 06:30:11;;;;;;;;;26.75;22.75;;;;;14.24;69.28;102097.31;5097701;27;45410;-80
2022/05/01 06:32:40;;;;;;;;;26.00;21.25;;;;;14.30;69.16;102097.41;5097326;27;45256;-81
2022/05/01 06:35:07;;;;;;;;;22.75;20.25;;;;;14.38;68.96;102094.88;5079193;27;46510;-79
2022/05/01 06:37:34;;;;;;;;;32.25;24.00;;;;;14.45;69.06;102102.09;5097121;27;45275;-81
2022/05/01 06:40:00;;;;;;;;;22.75;20.25;;;;;14.50;68.36;102092.44;5079019;27;45400;-80
2022/05/01 06:42:25;;;;;;;;;25.75;24.00;;;;;14.60;68.60;102105.00;5079146;27;45564;-80
2022/05/01 06:44:51;;;;;;;;;23.50;19.75;;;;;14.65;68.44;102108.63;5095977;27;54991;-80
2022/05/01 06:47:16;;;;;;;;;22.00;20.25;;;;;14.70;68.05;102113.09;5097172;27;45543;-80
2022/05/01 06:49:42;;;;;;;;;28.75;23.00;;;;;14.74;68.13;102112.28;5099315;27;45409;-79
2022/05/01 06:52:07;;;;;;;;;26.25;22.50;;;;;14.79;68.53;102114.13;5099666;27;45538;-77
2022/05/01 06:54:33;;;;;;;;;31.75;23.00;;;;;14.85;67.85;102113.31;5116819;27;45402;-80
2022/05/01 06:56:58;;;;;;;;;26.00;23.75;;;;;14.89;67.42;102113.38;5100795;27;45375;-79
2022/05/01 06:59:23;;;;;;;;;26.00;25.50;;;;;14.97;67.23;102112.59;5100836;27;45405;-80
2022/05/01 07:01:49;;;;;;;;;28.75;23.75;;;;;15.01;67.19;102096.69;5100541;27;45221;-79
2022/05/01 07:04:14;;;;;;;;;28.25;24.50;;;;;15.06;67.59;102095.00;5099613;27;46532;-79
2022/05/01 07:06:40;;;;;;;;;24.25;23.00;;;;;15.15;67.71;102099.53;5100545;27;45392;-79
2022/05/01 07:09:06;;;;;;;;;25.25;22.50;;;;;15.22;68.03;102096.06;5094369;27;45284;-80
2022/05/01 07:11:32;;;;;;;;;28.50;25.25;;;;;15.26;66.77;102097.00;5097406;27;45300;-80
2022/05/01 07:13:57;;;;;;;;;31.50;23.75;;;;;15.32;66.94;102099.75;5100303;27;46238;-80
2022/05/01 07:16:23;;;;;;;;;28.50;26.75;;;;;15.35;67.51;102094.47;5100377;27;45657;-80
2022/05/01 07:18:48;;;;;;;;;28.75;26.25;;;;;15.41;67.10;102087.44;5100633;27;46023;-79
2022/05/01 07:21:13;;;;;;;;;30.00;26.50;;;;;15.46;67.54;102093.72;5100645;27;45192;-81
2022/05/01 07:23:39;;;;;;;;;30.25;27.50;;;;;15.53;66.97;102096.44;5100478;27;46482;-80
2022/05/01 07:26:04;;;;;;;;;26.75;24.00;;;;;15.56;66.91;102094.72;5100248;27;45223;-80
2022/05/01 07:28:30;;;;;;;;;34.25;27.75;;;;;15.60;67.30;102091.19;5100397;27;45220;-80
2022/05/01 07:30:55;;;;;;;;;28.00;27.25;;;;;15.64;66.62;102090.38;5100422;27;45176;-77
2022/05/01 07:33:22;;;;;;;;;26.25;25.75;;;;;15.66;66.81;102098.41;5099786;27;46657;-80
2022/05/01 07:35:47;;;;;;;;;34.00;29.00;;;;;15.68;67.03;102089.53;5100181;27;45358;-81
2022/05/01 07:38:13;;;;;;;;;35.25;32.25;;;;;15.70;66.38;102092.19;5100323;27;45363;-80
2022/05/01 07:40:39;;;;;;;;;28.00;24.00;;;;;15.70;66.15;102093.09;5098374;27;45552;-80
2022/05/01 07:43:05;;;;;;;;;26.50;23.25;;;;;15.71;65.91;102100.22;5099808;27;47259;-79
2022/05/01 07:45:30;;;;;;;;;36.00;26.00;;;;;15.73;66.07;102091.38;5099881;27;45402;-80
2022/05/01 07:47:55;;;;;;;;;33.25;25.75;;;;;15.76;66.19;102097.59;5100243;27;45434;-80
2022/05/01 07:50:21;;;;;;;;;23.50;22.00;;;;;15.77;66.58;102090.53;5100288;27;45385;-80
2022/05/01 07:52:46;;;;;;;;;28.50;23.75;;;;;15.77;66.63;102085.19;5099906;27;45948;-77
2022/05/01 07:55:12;;;;;;;;;26.00;24.50;;;;;15.75;65.88;102077.16;5098404;27;45418;-79
2022/05/01 07:57:37;;;;;;;;;24.75;21.75;;;;;15.78;65.71;102073.66;5100001;27;45521;-80
2022/05/01 08:00:04;;;;;;;;;26.00;24.00;;;;;15.79;65.90;102079.00;5099477;27;45492;-81
2022/05/01 08:02:35;;;;;;;;;24.50;23.50;;;;;15.82;66.25;102075.44;5081414;27;47468;-79
2022/05/01 08:05:00;;;;;;;;;29.00;24.75;;;;;15.86;66.17;102069.28;5100184;27;45493;-79
2022/05/01 08:07:26;;;;;;;;;29.50;23.50;;;;;15.89;65.60;102071.97;5099747;27;45414;-79
2022/05/01 08:09:52;;;;;;;;;23.50;22.50;;;;;15.91;65.67;102072.88;5072827;27;45340;-79
2022/05/01 08:12:17;;;;;;;;;23.50;21.50;;;;;15.94;65.51;102073.81;5099606;27;45426;-79
2022/05/01 08:14:44;;;;;;;;;20.75;19.75;;;;;15.98;65.27;102072.06;5099560;27;45204;-79
2022/05/01 08:17:09;;;;;;;;;20.00;20.00;;;;;16.01;64.05;102069.41;5099769;27;45227;-79
2022/05/01 08:22:18;;;;;;;;;18.25;16.50;;;;;16.10;63.17;102060.63;5092485;27;45713;-79
2022/05/01 08:24:44;;;;;;;;;21.25;19.25;;;;;16.15;63.31;102065.09;5099360;27;45253;-78
2022/05/01 08:27:09;;;;;;;;;21.50;19.75;;;;;16.21;62.32;102066.91;5099575;27;45196;-80
2022/05/01 08:29:37;;;;;;;;;25.00;22.50;;;;;16.24;62.48;102062.50;5099407;27;45574;-80
2022/05/01 08:32:03;;;;;;;;;26.00;22.75;;;;;16.31;62.58;102065.22;5099088;27;46351;-79
2022/05/01 08:34:28;;;;;;;;;22.50;19.50;;;;;16.34;61.05;102060.78;5098958;27;45734;-80
2022/05/01 08:36:54;;;;;;;;;20.00;19.00;;;;;16.37;61.16;102052.81;5099560;27;45294;-79
2022/05/01 08:39:20;;;;;;;;;21.00;18.75;;;;;16.43;61.21;102057.28;5098014;27;45569;-79
2022/05/01 08:41:45;;;;;;;;;21.00;18.00;;;;;16.46;61.57;102049.34;5098977;27;45835;-79
2022/05/01 08:44:13;;;;;;;;;19.50;15.75;;;;;16.54;60.77;102044.03;5098795;27;48769;-79
2022/05/01 08:46:50;;;;;;;;;24.50;21.00;;;;;16.59;60.43;102029.84;5081111;27;45357;-79
2022/05/01 08:49:17;;;;;;;;;22.50;18.00;;;;;16.68;61.12;102039.69;5099679;27;45331;-80
2022/05/01 08:51:43;;;;;;;;;19.50;18.50;;;;;16.77;60.51;102040.63;5098999;27;45509;-79
2022/05/01 08:54:09;;;;;;;;;17.75;17.50;;;;;16.85;60.21;102039.78;5099150;27;45228;-80
2022/05/01 08:56:37;;;;;;;;;21.50;20.00;;;;;16.89;59.61;102042.47;5098949;27;45302;-78
2022/05/01 08:59:09;;;;;;;;;22.00;18.50;;;;;16.95;60.10;102049.63;5097846;27;45300;-79
2022/05/01 09:01:35;;;;;;;;;24.50;19.75;;;;;16.98;59.14;102047.81;5098785;27;45828;-79
2022/05/01 09:04:02;;;;;;;;;21.50;20.25;;;;;17.02;58.85;102046.06;5098949;27;45457;-80
2022/05/01 09:06:28;;;;;;;;;18.50;18.50;;;;;17.06;59.50;102039.88;5080188;27;45214;-79
2022/05/01 09:08:53;;;;;;;;;25.75;20.75;;;;;17.14;59.37;102043.44;5097587;27;45489;-80
2022/05/01 09:14:04;;;;;;;;;21.25;20.00;;;;;17.26;58.74;102040.84;5098768;27;45380;-79
2022/05/01 09:16:29;;;;;;;;;22.00;19.75;;;;;17.33;58.32;102044.41;5098561;27;45275;-80
2022/05/01 09:18:54;;;;;;;;;20.75;18.00;;;;;17.36;58.06;102032.81;5098643;27;45438;-80
2022/05/01 09:21:20;;;;;;;;;25.25;20.00;;;;;17.40;57.76;102037.28;5098424;27;46392;-79
2022/05/01 09:23:47;;;;;;;;;21.25;18.75;;;;;17.49;57.79;102042.66;5098495;27;45176;-79
2022/05/01 09:26:17;;;;;;;;;20.25;19.25;;;;;17.55;57.25;102034.66;5080449;27;45386;-79
2022/05/01 09:28:54;;;;;;;;;21.00;21.00;;;;;17.66;57.16;102024.88;5098714;27;45325;-78
2022/05/01 09:31:47;;;;;;;;;26.25;21.00;;;;;17.73;55.93;102023.13;5080057;27;47477;-80
2022/05/01 09:34:29;;;;;;;;;21.50;18.00;;;;;17.78;56.21;102024.91;5097899;27;45419;-79
2022/05/01 09:36:55;;;;;;;;;23.00;21.50;;;;;17.86;55.74;102027.59;5098594;27;45354;-79
2022/05/01 09:39:27;;;;;;;;;22.50;22.50;;;;;17.95;55.41;102011.56;5098097;27;45398;-80
2022/05/01 09:41:53;;;;;;;;;23.50;20.00;;;;;18.04;54.76;102011.53;5084261;27;47336;-80
2022/05/01 09:44:20;;;;;;;;;25.25;22.25;;;;;18.11;54.67;102016.88;5098275;27;45318;-79
2022/05/01 09:46:47;;;;;;;;;21.25;20.25;;;;;18.21;54.21;102013.28;5098300;27;45473;-80
2022/05/01 09:49:15;;;;;;;;;19.50;19.50;;;;;18.29;54.43;102004.38;5111238;27;45441;-80
2022/05/01 09:51:46;;;;;;;;;25.00;20.25;;;;;18.38;53.75;102003.47;5092264;27;45671;-79
2022/05/01 09:54:22;;;;;;;;;18.25;18.25;;;;;18.47;53.40;102006.09;5096943;27;45510;-79
2022/05/01 09:56:54;;;;;;;;;18.75;16.25;;;;;18.58;52.69;102006.94;5096728;27;45385;-79
2022/05/01 09:59:21;;;;;;;;;21.00;16.25;;;;;18.68;52.73;101993.59;5098206;27;45546;-80
2022/05/01 10:02:06;;;;;;;;;20.75;18.50;;;;;18.80;52.27;102005.16;5096512;27;45425;-80
2022/05/01 10:04:33;;;;;;;;;16.67;15.00;;;;;18.91;51.33;101990.81;5079514;27;45272;-80
2022/05/01 10:06:59;;;;;;;;;16.33;16.33;;;;;18.98;50.43;101989.91;5079665;27;45296;-79
2022/05/01 10:09:26;;;;;;;;;15.33;15.00;;;;;19.01;50.38;101989.84;5088003;27;45536;-79
2022/05/01 10:11:54;;;;;;;;;17.00;14.33;;;;;19.06;49.65;101994.28;5096711;27;46296;-78
2022/05/01 10:14:23;;;;;;;;;15.67;15.67;;;;;19.11;49.65;101994.25;5097802;27;45303;-80
2022/05/01 10:16:48;;;;;;;;;17.67;14.67;;;;;19.16;48.79;101989.78;5097864;27;45224;-79
2022/05/01 10:19:15;;;;;;;;;15.00;13.67;;;;;19.22;48.69;101987.06;5097665;27;45201;-80
2022/05/01 10:21:46;;;;;;;;;13.00;11.67;;;;;19.31;49.04;101989.69;5097576;27;45713;-79
2022/05/01 10:24:11;;;;;;;;;14.33;14.00;;;;;19.42;48.83;101984.25;5097572;27;45340;-80
2022/05/01 10:26:40;;;;;;;;;14.33;13.00;;;;;19.51;47.46;101977.94;5097695;27;45342;-80
2022/05/01 10:29:36;;;;;;;;;12.67;12.00;;;;;19.60;47.96;101968.09;5097622;27;45461;-78
2022/05/01 10:32:21;;;;;;;;;17.00;15.33;;;;;19.69;46.98;101966.22;5097415;27;45964;-79
2022/05/01 10:35:08;;;;;;;;;12.33;9.33;;;;;19.73;45.47;101960.81;5075563;27;45490;-79
2022/05/01 10:38:10;;;;;;;;;10.00;9.67;;;;;19.81;46.16;101958.06;5097638;27;45484;-80
2022/05/01 10:40:44;;;;;;;;;14.67;11.00;;;;;19.92;45.90;101953.50;5097266;27;45556;-79
2022/05/01 10:43:27;;;;;;;;;12.00;11.67;;;;;19.96;43.71;101960.59;5097316;27;45689;-79
2022/05/01 10:46:00;;;;;;;;;20.67;19.33;;;;;20.00;44.28;101957.00;5097211;27;45289;-78
2022/05/01 10:48:36;;;;;;;;;12.33;12.33;;;;;20.06;44.03;101939.94;5095939;27;45457;-80
2022/05/01 10:51:38;;;;;;;;;17.33;16.33;;;;;20.13;44.17;101947.00;5097876;27;45394;-80
2022/05/01 10:54:09;;;;;;;;;12.67;12.67;;;;;20.22;43.70;101940.66;5097197;27;45542;-79
2022/05/01 10:56:35;;;;;;;;;12.67;11.00;;;;;20.28;43.65;101933.44;5096859;27;45267;-79
2022/05/01 10:59:35;;;;;;;;;12.33;12.33;;;;;20.37;43.20;101929.78;5097498;27;46384;-79
2022/05/01 11:02:06;;;;;;;;;10.33;10.33;;;;;20.47;42.97;101927.91;5097155;27;45594;-79
2022/05/01 11:04:41;;;;;;;;;13.33;11.67;;;;;20.51;42.67;101927.84;5079541;27;45792;-80
2022/05/01 11:07:09;;;;;;;;;9.67;9.67;;;;;20.58;42.30;101923.28;5078868;27;45486;-80
2022/05/01 11:09:36;;;;;;;;;14.33;10.33;;;;;20.63;41.93;101919.63;5088424;27;45477;-80
2022/05/01 11:12:02;;;;;;;;;13.67;12.00;;;;;20.67;42.42;101928.53;5062226;27;45494;-81
2022/05/01 11:14:42;;;;;;;;;13.67;11.33;;;;;20.68;42.20;101927.63;5096827;27;47140;-80
2022/05/01 11:17:08;;;;;;;;;9.67;9.00;;;;;20.66;41.69;101918.69;5095598;27;45516;-80
2022/05/01 11:19:50;;;;;;;;;18.00;18.00;;;;;20.66;41.63;101918.69;5096928;27;45315;-79
2022/05/01 11:22:23;;;;;;;;;9.67;9.67;;;;;20.65;41.22;101903.50;5095813;27;45288;-79
2022/05/01 11:24:48;;;;;;;;;12.00;10.33;;;;;20.65;41.42;101911.53;5095500;27;46582;-80
2022/05/01 11:27:16;;;;;;;;;10.33;10.33;;;;;20.62;41.53;101903.56;5078557;27;46699;-79
2022/05/01 11:30:07;;;;;;;;;7.33;7.00;;;;;20.64;40.58;101904.41;5096915;27;45268;-79
2022/05/01 11:32:46;;;;;;;;;13.00;8.67;;;;;20.58;39.42;101902.69;5067028;27;45260;-80